Time;durP1;ratioP1;P1;durP2;ratioP2;P2;SDS_P1;SDS_P2;PMS_P1;PMS_P2;Temp;Humidity;BMP_temperature;BMP_pressure;BME280_temperature;BME280_humidity;BME280_pressure;Samples;Min_cycle;Max_cycle;Signal;HPM_P1;HPM_P2
2023/06/22 00:02:01;;;;;;;31.30;20.55;;;18.40;99.90;;;;;;4971512;28;20046;-72
2023/06/22 00:04:27;;;;;;;25.27;18.10;;;18.40;99.90;;;;;;4921607;28;219252;-73
2023/06/22 00:06:53;;;;;;;25.15;17.63;;;18.30;99.90;;;;;;4972609;28;20070;-75
2023/06/22 00:09:19;;;;;;;25.08;17.67;;;18.30;99.90;;;;;;4922479;28;207665;-71
2023/06/22 00:11:45;;;;;;;27.02;18.63;;;18.30;99.90;;;;;;4965469;28;20147;-72
2023/06/22 00:14:11;;;;;;;28.05;20.65;;;18.30;99.90;;;;;;4913950;28;207454;-72
2023/06/22 00:16:37;;;;;;;25.73;19.27;;;18.20;99.90;;;;;;4961468;28;20424;-72
2023/06/22 00:19:04;;;;;;;29.70;21.50;;;18.20;99.90;;;;;;4919535;28;205663;-72
2023/06/22 00:21:30;;;;;;;29.75;20.23;;;18.10;99.90;;;;;;4969085;28;20077;-72
2023/06/22 00:23:57;;;;;;;27.20;19.60;;;18.10;99.90;;;;;;4913827;28;206925;-72
2023/06/22 00:26:23;;;;;;;33.95;25.25;;;18.10;99.90;;;;;;4966830;28;20042;-71
2023/06/22 00:28:49;;;;;;;32.08;20.95;;;18.10;99.90;;;;;;4918056;28;207225;-73
2023/06/22 00:31:15;;;;;;;27.75;19.73;;;18.00;99.90;;;;;;4974451;28;20077;-71
2023/06/22 00:33:41;;;;;;;28.67;21.83;;;18.00;99.90;;;;;;4912386;28;209193;-72
2023/06/22 00:36:07;;;;;;;33.80;22.75;;;18.00;99.90;;;;;;4974397;28;20069;-71
2023/06/22 00:38:34;;;;;;;29.50;21.33;;;18.00;99.90;;;;;;4910265;28;207569;-72
2023/06/22 00:41:00;;;;;;;29.95;20.95;;;17.90;99.90;;;;;;4986438;28;20063;-71
2023/06/22 00:43:26;;;;;;;27.67;19.23;;;17.90;99.90;;;;;;4918338;28;207553;-71
2023/06/22 00:45:56;;;;;;;25.17;19.30;;;17.90;99.90;;;;;;4978392;28;20492;-72
2023/06/22 00:48:22;;;;;;;25.23;18.30;;;17.90;99.90;;;;;;4917409;28;206881;-71
2023/06/22 00:50:50;;;;;;;27.77;19.70;;;17.80;99.90;;;;;;4988143;28;20530;-73
2023/06/22 00:53:17;;;;;;;30.98;23.60;;;17.80;99.90;;;;;;4963532;28;207657;-72
2023/06/22 00:55:51;;;;;;;27.88;21.40;;;17.80;99.90;;;;;;4934324;28;20951;-71
2023/06/22 00:58:21;;;;;;;33.35;23.13;;;17.80;99.90;;;;;;4936595;28;204680;-71
2023/06/22 01:00:48;;;;;;;29.45;23.08;;;17.70;99.90;;;;;;4916449;28;20054;-72
2023/06/22 01:03:16;;;;;;;34.55;26.15;;;17.70;99.90;;;;;;4949165;28;207429;-70
2023/06/22 01:05:46;;;;;;;32.13;24.10;;;17.60;99.90;;;;;;4967334;28;122243;-72
2023/06/22 01:08:17;;;;;;;39.47;27.83;;;17.60;99.90;;;;;;4964790;28;20061;-72
2023/06/22 01:10:54;;;;;;;28.02;22.73;;;17.60;99.90;;;;;;4898592;28;111580;-71
2023/06/22 01:13:30;;;;;;;27.70;21.30;;;17.50;99.90;;;;;;4919868;28;207677;-72
2023/06/22 01:16:09;;;;;;;26.30;19.33;;;17.40;99.90;;;;;;4956160;28;20050;-69
2023/06/22 01:18:39;;;;;;;22.95;18.73;;;17.40;99.90;;;;;;4914442;28;209950;-69
2023/06/22 01:21:09;;;;;;;22.27;17.42;;;17.30;99.90;;;;;;4981068;28;20058;-69
2023/06/22 01:23:35;;;;;;;22.50;18.40;;;17.30;99.90;;;;;;4904095;28;207456;-69
2023/06/22 01:26:28;;;;;;;22.48;17.95;;;17.30;99.90;;;;;;4965368;28;20054;-69
2023/06/22 01:28:56;;;;;;;24.38;18.77;;;17.30;99.90;;;;;;4919041;28;207639;-70
2023/06/22 01:31:26;;;;;;;27.55;20.45;;;17.30;99.90;;;;;;4972748;28;20051;-68
2023/06/22 01:33:59;;;;;;;21.92;17.23;;;17.20;99.90;;;;;;4915073;28;213525;-68
2023/06/22 01:36:26;;;;;;;22.75;16.52;;;17.20;99.90;;;;;;4970597;28;20058;-69
2023/06/22 01:38:53;;;;;;;22.83;17.40;;;17.20;99.90;;;;;;4916694;28;208597;-69
2023/06/22 01:41:21;;;;;;;29.30;23.42;;;17.20;99.90;;;;;;4973847;28;20069;-69
2023/06/22 01:43:48;;;;;;;24.05;20.23;;;17.10;99.90;;;;;;4916662;28;213050;-68
2023/06/22 01:46:15;;;;;;;24.35;18.40;;;17.10;99.90;;;;;;4975907;28;20051;-68
2023/06/22 01:48:41;;;;;;;28.13;20.85;;;17.00;99.90;;;;;;4915044;28;207719;-69
2023/06/22 01:51:07;;;;;;;21.02;16.98;;;16.90;99.90;;;;;;4989633;28;20062;-69
2023/06/22 01:53:33;;;;;;;22.58;18.50;;;16.90;99.90;;;;;;4893080;28;223948;-72
2023/06/22 01:56:00;;;;;;;21.42;18.45;;;16.90;99.90;;;;;;4975724;28;20058;-71
2023/06/22 01:58:28;;;;;;;22.57;17.30;;;16.80;99.90;;;;;;4908708;28;207553;-71
2023/06/22 02:01:09;;;;;;;20.27;15.18;;;16.80;99.90;;;;;;4975310;28;20728;-71
2023/06/22 02:03:41;;;;;;;18.52;14.68;;;16.70;99.90;;;;;;4913428;28;207425;-71
2023/06/22 02:06:18;;;;;;;19.90;15.63;;;16.70;99.90;;;;;;4973637;28;20524;-70
2023/06/22 02:08:51;;;;;;;21.80;17.83;;;16.60;99.90;;;;;;4918319;28;208930;-70
2023/06/22 02:11:20;;;;;;;20.95;15.98;;;16.50;99.90;;;;;;4983594;28;20035;-70
2023/06/22 02:13:47;;;;;;;19.65;16.58;;;16.50;99.90;;;;;;4919624;28;208399;-71
2023/06/22 02:16:14;;;;;;;20.58;15.75;;;16.40;99.90;;;;;;4994644;28;20396;-70
2023/06/22 02:18:50;;;;;;;25.23;21.95;;;16.40;99.90;;;;;;4936571;28;210433;-70
2023/06/22 02:21:20;;;;;;;25.25;19.42;;;16.40;99.90;;;;;;4981435;28;20054;-70
2023/06/22 02:23:47;;;;;;;22.70;18.40;;;16.40;99.90;;;;;;4931266;28;211845;-71
2023/06/22 02:26:13;;;;;;;24.95;18.83;;;16.30;99.90;;;;;;5001434;28;20065;-71
2023/06/22 02:28:39;;;;;;;21.63;17.08;;;16.30;99.90;;;;;;4929594;28;207484;-71
2023/06/22 02:31:06;;;;;;;22.75;18.63;;;16.30;99.90;;;;;;4969228;28;20069;-70
2023/06/22 02:33:32;;;;;;;23.27;18.33;;;16.30;99.90;;;;;;4932270;28;216945;-72
2023/06/22 02:35:58;;;;;;;21.52;17.63;;;16.30;99.90;;;;;;4986438;28;20047;-71
2023/06/22 02:38:24;;;;;;;27.35;21.70;;;16.30;99.90;;;;;;4911698;28;207818;-70
2023/06/22 02:40:50;;;;;;;28.13;23.50;;;16.30;99.90;;;;;;4994353;28;20050;-70
2023/06/22 02:43:17;;;;;;;25.67;21.60;;;16.30;99.90;;;;;;4971594;28;210364;-71
2023/06/22 02:45:43;;;;;;;33.15;27.70;;;16.30;99.90;;;;;;4939417;28;173819;-70
2023/06/22 02:48:10;;;;;;;32.03;26.08;;;16.30;99.90;;;;;;4962278;28;20054;-70
2023/06/22 02:50:36;;;;;;;22.23;18.92;;;16.20;99.90;;;;;;4939834;28;207301;-70
2023/06/22 02:53:02;;;;;;;22.58;19.65;;;16.20;99.90;;;;;;4980143;28;20381;-70
2023/06/22 02:55:29;;;;;;;23.88;19.83;;;16.20;99.90;;;;;;4876853;28;129505;-71
2023/06/22 02:57:55;;;;;;;34.22;25.33;;;16.10;99.90;;;;;;4962748;28;20051;-70
2023/06/22 03:00:21;;;;;;;185.25;24.85;;;16.20;99.90;;;;;;4948129;28;215684;-71
2023/06/22 03:02:48;;;;;;;165.43;21.40;;;16.10;99.90;;;;;;4978365;28;20058;-70
2023/06/22 03:05:17;;;;;;;60.15;21.75;;;16.00;99.90;;;;;;4943627;28;207351;-69
2023/06/22 03:07:44;;;;;;;138.57;24.35;;;15.90;99.90;;;;;;4976096;28;20050;-71
2023/06/22 03:10:12;;;;;;;149.65;22.05;;;15.80;99.90;;;;;;4928125;28;213862;-71
2023/06/22 03:12:39;;;;;;;106.70;23.77;;;15.70;99.90;;;;;;4979350;28;20054;-71
2023/06/22 03:15:06;;;;;;;330.50;29.77;;;15.70;99.90;;;;;;4937973;28;206908;-70
2023/06/22 03:17:34;;;;;;;244.23;28.90;;;15.70;99.90;;;;;;4987837;28;20049;-70
2023/06/22 03:20:01;;;;;;;26.70;20.42;;;15.70;99.90;;;;;;4954506;28;207122;-71
2023/06/22 03:22:27;;;;;;;49.85;20.45;;;15.60;99.90;;;;;;4972047;28;20051;-71
2023/06/22 03:24:53;;;;;;;27.50;19.65;;;15.60;99.90;;;;;;4946452;28;207518;-70
2023/06/22 03:27:19;;;;;;;54.97;23.92;;;15.60;99.90;;;;;;4989190;28;20050;-70
2023/06/22 03:29:45;;;;;;;49.15;22.30;;;15.60;99.90;;;;;;4943930;28;210458;-69
2023/06/22 03:32:11;;;;;;;23.75;20.15;;;15.60;99.90;;;;;;4990733;28;20090;-69
2023/06/22 03:34:37;;;;;;;27.88;19.60;;;15.60;99.90;;;;;;4951252;28;210361;-70
2023/06/22 03:37:04;;;;;;;27.15;19.90;;;15.50;99.90;;;;;;4995633;28;20053;-70
2023/06/22 03:39:31;;;;;;;66.38;26.63;;;15.60;99.90;;;;;;4945083;28;207419;-71
2023/06/22 03:41:57;;;;;;;72.85;24.58;;;15.60;99.90;;;;;;4977073;28;20047;-70
2023/06/22 03:44:24;;;;;;;114.63;27.42;;;15.60;99.90;;;;;;4922544;28;211439;-70
2023/06/22 03:46:50;;;;;;;144.82;28.83;;;15.60;99.90;;;;;;4975194;28;20043;-70
2023/06/22 03:49:16;;;;;;;41.80;26.05;;;15.50;99.90;;;;;;4924737;28;209074;-70
2023/06/22 03:51:42;;;;;;;33.15;24.77;;;15.50;99.90;;;;;;4977181;28;20054;-71
2023/06/22 03:54:08;;;;;;;41.85;28.23;;;15.50;99.90;;;;;;4913609;28;210173;-70
2023/06/22 03:56:34;;;;;;;61.22;28.55;;;15.60;99.90;;;;;;4971912;28;20467;-70
2023/06/22 03:59:00;;;;;;;32.28;23.17;;;15.60;99.90;;;;;;4928702;28;209651;-69
2023/06/22 04:01:26;;;;;;;34.97;26.23;;;15.60;99.90;;;;;;4994944;28;20061;-70
2023/06/22 04:03:53;;;;;;;22.63;19.33;;;15.50;99.90;;;;;;4942279;28;206943;-70
2023/06/22 04:06:19;;;;;;;31.30;25.10;;;15.50;99.90;;;;;;4996449;28;20054;-70
2023/06/22 04:08:50;;;;;;;23.98;21.10;;;15.60;99.90;;;;;;4939466;28;207499;-70
2023/06/22 04:11:18;;;;;;;27.25;20.65;;;15.60;99.90;;;;;;4991011;28;20054;-69
2023/06/22 04:13:44;;;;;;;32.08;24.77;;;15.70;99.90;;;;;;4917317;28;216608;-70
2023/06/22 04:16:10;;;;;;;33.08;27.35;;;15.70;99.90;;;;;;4977642;28;20055;-70
2023/06/22 04:18:36;;;;;;;34.45;27.15;;;15.70;99.90;;;;;;4912036;28;207566;-70
2023/06/22 04:21:03;;;;;;;32.45;27.02;;;15.80;99.90;;;;;;4990055;28;20069;-70
2023/06/22 04:23:29;;;;;;;32.35;25.48;;;15.90;99.90;;;;;;4910103;28;210025;-71
2023/06/22 04:25:56;;;;;;;34.15;28.58;;;15.90;99.90;;;;;;4987202;28;20428;-71
2023/06/22 04:28:22;;;;;;;28.73;25.63;;;15.90;99.90;;;;;;4913385;28;207369;-70
2023/06/22 04:30:50;;;;;;;26.90;22.85;;;16.00;99.90;;;;;;4978516;28;20047;-70
2023/06/22 04:33:17;;;;;;;30.40;26.80;;;16.00;99.90;;;;;;4948470;28;207716;-70
2023/06/22 04:35:45;;;;;;;39.42;32.05;;;16.10;99.90;;;;;;4958208;28;20043;-71
2023/06/22 04:38:15;;;;;;;29.27;25.23;;;16.20;99.90;;;;;;4966443;28;20055;-72
2023/06/22 04:40:41;;;;;;;36.60;30.45;;;16.20;99.90;;;;;;4933639;28;205862;-70
2023/06/22 04:43:09;;;;;;;37.28;30.30;;;16.30;99.90;;;;;;4962667;28;20062;-71
2023/06/22 04:45:37;;;;;;;36.05;29.00;;;16.40;99.90;;;;;;4949359;28;207017;-71
2023/06/22 04:48:05;;;;;;;36.50;28.67;;;16.50;99.90;;;;;;4981817;28;20053;-70
2023/06/22 04:50:31;;;;;;;35.67;29.88;;;16.50;99.90;;;;;;4931729;28;206611;-70
2023/06/22 04:52:57;;;;;;;41.30;32.60;;;16.70;99.90;;;;;;4981680;28;20527;-72
2023/06/22 04:55:25;;;;;;;36.97;30.92;;;16.80;99.90;;;;;;4905791;28;207580;-71
2023/06/22 04:57:52;;;;;;;42.30;35.33;;;16.90;99.90;;;;;;4964520;28;20061;-71
2023/06/22 05:00:19;;;;;;;36.70;30.05;;;17.00;99.90;;;;;;4940528;28;206807;-71
2023/06/22 05:02:46;;;;;;;40.85;34.00;;;17.10;99.90;;;;;;4985892;28;20408;-70
2023/06/22 05:05:13;;;;;;;39.00;31.00;;;17.20;99.90;;;;;;4948256;28;207700;-71
2023/06/22 05:07:47;;;;;;;37.30;31.80;;;17.30;99.90;;;;;;4964269;28;20059;-70
2023/06/22 05:10:13;;;;;;;39.80;32.88;;;17.40;99.90;;;;;;4935165;28;243845;-71
2023/06/22 05:12:41;;;;;;;36.10;28.83;;;17.60;99.90;;;;;;4985220;28;20050;-70
2023/06/22 05:15:08;;;;;;;38.20;32.88;;;17.60;99.90;;;;;;4926011;28;207491;-70
2023/06/22 05:17:36;;;;;;;41.97;33.75;;;17.80;99.90;;;;;;4961758;28;20069;-71
2023/06/22 05:20:06;;;;;;;37.55;31.23;;;17.90;99.90;;;;;;4909094;28;207846;-71
2023/06/22 05:22:32;;;;;;;40.95;32.38;;;18.00;99.90;;;;;;4961983;28;20047;-70
2023/06/22 05:24:58;;;;;;;40.47;32.30;;;18.10;99.90;;;;;;4922459;28;206918;-70
2023/06/22 05:27:24;;;;;;;39.65;30.98;;;18.20;99.90;;;;;;4985221;28;20054;-72
2023/06/22 05:29:50;;;;;;;35.20;29.25;;;18.40;99.90;;;;;;4932083;28;211670;-67
2023/06/22 05:32:16;;;;;;;38.17;30.65;;;18.50;99.90;;;;;;4972864;28;20050;-71
2023/06/22 05:34:42;;;;;;;38.05;30.75;;;18.70;99.90;;;;;;4948461;28;205228;-71
2023/06/22 05:37:09;;;;;;;34.97;28.38;;;18.80;99.90;;;;;;4989509;28;20062;-72
2023/06/22 05:39:37;;;;;;;41.15;30.92;;;19.00;99.90;;;;;;4946956;28;208036;-71
2023/06/22 05:42:06;;;;;;;40.88;31.35;;;19.20;99.90;;;;;;4975781;28;20505;-70
2023/06/22 05:44:33;;;;;;;37.40;29.00;;;19.30;99.90;;;;;;4921129;28;210038;-71
2023/06/22 05:46:59;;;;;;;35.13;29.30;;;19.40;99.90;;;;;;4965999;28;20062;-71
2023/06/22 05:49:32;;;;;;;32.88;26.83;;;19.60;99.90;;;;;;4956057;28;48711;-70
2023/06/22 05:51:59;;;;;;;35.22;28.10;;;19.80;99.90;;;;;;4978762;28;20551;-71
2023/06/22 05:54:27;;;;;;;32.78;25.77;;;20.00;99.90;;;;;;4896773;28;191875;-71
2023/06/22 05:56:53;;;;;;;32.17;24.95;;;20.10;99.90;;;;;;4971856;28;20047;-71
2023/06/22 05:59:20;;;;;;;33.53;25.52;;;20.40;99.90;;;;;;4913645;28;207905;-68
2023/06/22 06:01:49;;;;;;;32.28;25.88;;;20.50;99.90;;;;;;4972769;28;20547;-68
2023/06/22 06:04:18;;;;;;;36.00;26.85;;;20.70;99.90;;;;;;4930415;28;212561;-67
2023/06/22 06:06:46;;;;;;;34.08;26.33;;;20.80;99.90;;;;;;4972566;28;20051;-70
2023/06/22 06:09:14;;;;;;;31.25;24.02;;;20.90;99.90;;;;;;4928335;28;20297;-69
2023/06/22 06:11:40;;;;;;;30.85;24.10;;;21.10;99.90;;;;;;4973530;28;20058;-68
2023/06/22 06:14:06;;;;;;;33.70;23.92;;;21.20;99.90;;;;;;4931812;28;214342;-68
2023/06/22 06:16:32;;;;;;;31.63;22.20;;;21.20;99.90;;;;;;4979921;28;20055;-69
2023/06/22 06:18:58;;;;;;;30.50;22.73;;;21.30;99.90;;;;;;4922735;28;207509;-69
2023/06/22 06:21:25;;;;;;;27.73;21.15;;;21.20;99.90;;;;;;4975057;28;20361;-70
2023/06/22 06:23:51;;;;;;;28.77;21.13;;;21.30;99.90;;;;;;4912722;28;249136;-69
2023/06/22 06:26:17;;;;;;;27.23;19.92;;;21.50;99.90;;;;;;4956135;28;20427;-69
2023/06/22 06:28:43;;;;;;;27.20;19.50;;;21.70;99.90;;;;;;4910750;28;218206;-70
2023/06/22 06:31:12;;;;;;;24.15;17.27;;;21.90;99.90;;;;;;4981429;28;20061;-71
2023/06/22 06:33:38;;;;;;;23.83;17.40;;;22.10;99.90;;;;;;4939717;28;186774;-73
2023/06/22 06:36:04;;;;;;;21.48;16.60;;;22.20;99.90;;;;;;4985880;28;20062;-73
2023/06/22 06:38:31;;;;;;;23.63;15.90;;;22.40;99.90;;;;;;4914291;28;207862;-73
2023/06/22 06:40:58;;;;;;;19.70;14.35;;;22.70;99.90;;;;;;4988328;28;20077;-72
2023/06/22 06:43:24;;;;;;;22.87;14.50;;;22.90;99.90;;;;;;4913744;28;218500;-73
2023/06/22 06:45:50;;;;;;;19.60;14.73;;;23.10;99.90;;;;;;4980465;28;20062;-73
2023/06/22 06:48:17;;;;;;;19.98;13.80;;;23.30;99.90;;;;;;4946025;28;204464;-71
2023/06/22 06:50:43;;;;;;;18.63;13.27;;;23.50;99.90;;;;;;4979548;28;70996;-72
2023/06/22 06:53:10;;;;;;;19.25;13.95;;;23.60;99.90;;;;;;4963007;28;20063;-73
2023/06/22 06:55:36;;;;;;;17.52;12.52;;;23.80;99.90;;;;;;4922418;28;226360;-72
2023/06/22 06:58:07;;;;;;;20.90;13.82;;;23.90;99.90;;;;;;4964906;28;20059;-73
2023/06/22 07:00:33;;;;;;;18.92;13.43;;;23.90;99.90;;;;;;4952118;28;207279;-73
2023/06/22 07:02:59;;;;;;;17.27;11.90;;;23.90;99.90;;;;;;4991305;28;20530;-73
2023/06/22 07:05:25;;;;;;;16.95;11.00;;;23.90;99.90;;;;;;4948368;28;230131;-72
2023/06/22 07:07:53;;;;;;;17.67;10.32;;;23.90;99.90;;;;;;4985340;28;20054;-72
2023/06/22 07:10:19;;;;;;;15.18;10.35;;;24.00;99.90;;;;;;4968217;28;210137;-72
2023/06/22 07:12:45;;;;;;;17.83;10.07;;;24.10;99.90;;;;;;4990276;28;20404;-73
2023/06/22 07:15:12;;;;;;;13.35;9.40;;;24.10;99.90;;;;;;4909624;28;206269;-72
2023/06/22 07:17:40;;;;;;;13.52;8.90;;;24.10;99.90;;;;;;4964242;28;20067;-73
2023/06/22 07:20:11;;;;;;;13.15;8.60;;;24.30;99.90;;;;;;4928671;28;207395;-73
2023/06/22 07:22:46;;;;;;;12.25;8.00;;;24.40;99.90;;;;;;4983786;28;20062;-73
2023/06/22 07:25:17;;;;;;;13.38;8.02;;;24.40;99.90;;;;;;4940659;28;208879;-73
2023/06/22 07:27:46;;;;;;;13.50;7.32;;;24.40;99.90;;;;;;4970174;28;20073;-73
2023/06/22 07:30:12;;;;;;;14.82;7.80;;;24.40;99.90;;;;;;4959952;28;207741;-74
2023/06/22 07:32:39;;;;;;;13.30;8.18;;;24.40;99.90;;;;;;4982351;28;20058;-73
2023/06/22 07:35:06;;;;;;;13.18;7.68;;;24.50;99.90;;;;;;4961002;28;220115;-73
2023/06/22 07:37:33;;;;;;;12.65;6.88;;;24.70;99.90;;;;;;4987867;28;20050;-73
2023/06/22 07:40:00;;;;;;;12.35;5.90;;;24.90;99.90;;;;;;4963558;28;211679;-73
2023/06/22 07:42:26;;;;;;;11.15;5.55;;;25.10;99.90;;;;;;4999136;28;20488;-73
2023/06/22 07:44:53;;;;;;;11.18;5.40;;;25.50;99.90;;;;;;4956940;28;216891;-73
2023/06/22 07:47:20;;;;;;;10.93;5.97;;;26.00;99.90;;;;;;4982810;28;20066;-73
2023/06/22 07:49:46;;;;;;;10.93;5.70;;;26.30;99.10;;;;;;4934702;28;214351;-73
2023/06/22 07:52:13;;;;;;;11.10;5.80;;;26.60;99.10;;;;;;4977195;28;20054;-73
2023/06/22 07:54:39;;;;;;;11.38;5.68;;;26.60;98.10;;;;;;4906317;28;227300;-73
2023/06/22 07:57:05;;;;;;;10.48;5.90;;;26.70;97.30;;;;;;4975319;28;20054;-73
2023/06/22 07:59:31;;;;;;;13.52;6.15;;;26.60;97.10;;;;;;4926797;28;215189;-73
2023/06/22 08:01:57;;;;;;;14.80;6.32;;;26.60;97.40;;;;;;4965722;28;20058;-73
2023/06/22 08:04:24;;;;;;;10.55;5.93;;;26.70;97.80;;;;;;4925777;28;207789;-75
2023/06/22 08:06:50;;;;;;;10.00;4.78;;;27.00;97.70;;;;;;4984867;28;20073;-74
2023/06/22 08:09:16;;;;;;;12.30;6.20;;;27.30;97.50;;;;;;4928046;28;209985;-73
2023/06/22 08:11:42;;;;;;;10.15;5.25;;;27.50;96.00;;;;;;4973100;28;20050;-74
2023/06/22 08:14:08;;;;;;;12.25;6.15;;;27.60;96.80;;;;;;4938310;28;209259;-74
2023/06/22 08:16:34;;;;;;;10.55;5.53;;;27.60;96.30;;;;;;4977379;28;20065;-75
2023/06/22 08:19:00;;;;;;;10.85;5.43;;;27.70;96.20;;;;;;4948306;28;201026;-75
2023/06/22 08:21:26;;;;;;;12.63;5.57;;;27.90;96.20;;;;;;4973803;28;20709;-75
2023/06/22 08:23:52;;;;;;;10.43;5.60;;;28.10;95.70;;;;;;4930225;28;226806;-73
2023/06/22 08:26:18;;;;;;;11.90;5.90;;;27.80;95.00;;;;;;4985363;28;20063;-74
2023/06/22 08:28:45;;;;;;;10.70;5.45;;;28.10;95.70;;;;;;4920872;28;205208;-76
2023/06/22 08:31:12;;;;;;;14.35;5.50;;;28.40;95.20;;;;;;4951415;28;20606;-74
2023/06/22 08:33:38;;;;;;;10.95;5.43;;;28.80;95.20;;;;;;4916124;28;207112;-73
2023/06/22 08:36:06;;;;;;;11.27;5.70;;;28.90;95.00;;;;;;4988746;28;20057;-73
2023/06/22 08:38:32;;;;;;;11.13;5.57;;;29.10;95.10;;;;;;4917829;28;206947;-74
2023/06/22 08:40:58;;;;;;;10.98;5.28;;;29.60;94.90;;;;;;4945941;28;1058257;-72
2023/06/22 08:43:24;;;;;;;11.77;6.00;;;29.90;94.00;;;;;;4917864;28;207531;-72
2023/06/22 08:45:50;;;;;;;11.77;5.72;;;29.70;93.70;;;;;;5009247;28;20419;-72
2023/06/22 08:48:16;;;;;;;10.85;5.50;;;29.50;94.10;;;;;;4973732;28;212103;-73
2023/06/22 08:50:42;;;;;;;12.27;5.57;;;29.70;94.00;;;;;;4964729;28;20053;-73
2023/06/22 08:53:09;;;;;;;11.48;5.50;;;30.20;94.00;;;;;;4964681;28;20062;-72
2023/06/22 08:55:35;;;;;;;13.02;5.25;;;30.50;93.40;;;;;;4931164;28;209625;-73
2023/06/22 08:58:01;;;;;;;11.98;5.50;;;30.50;93.30;;;;;;4978495;28;20054;-72
2023/06/22 09:00:29;;;;;;;11.43;5.40;;;30.70;92.70;;;;;;4953095;28;210689;-74
2023/06/22 09:02:58;;;;;;;13.00;6.13;;;30.70;92.80;;;;;;4982002;28;20065;-73
2023/06/22 09:05:26;;;;;;;11.15;5.88;;;31.10;92.50;;;;;;4943837;28;211930;-72
2023/06/22 09:07:54;;;;;;;11.43;5.07;;;31.20;92.10;;;;;;4965155;28;20428;-72
2023/06/22 09:10:20;;;;;;;10.38;5.38;;;31.40;91.40;;;;;;4951676;28;221939;-71
2023/06/22 09:12:46;;;;;;;10.20;5.15;;;31.20;91.20;;;;;;4988408;28;20054;-71
2023/06/22 09:15:13;;;;;;;14.40;5.97;;;31.50;91.90;;;;;;4933413;28;213433;-70
2023/06/22 09:17:40;;;;;;;10.35;5.18;;;31.70;91.20;;;;;;4965928;28;20069;-71
2023/06/22 09:20:09;;;;;;;11.07;5.40;;;31.80;91.40;;;;;;4929462;28;210249;-70
2023/06/22 09:22:35;;;;;;;12.43;5.57;;;31.80;90.50;;;;;;4971981;28;20054;-71
2023/06/22 09:25:03;;;;;;;11.57;5.80;;;31.60;90.90;;;;;;4934412;28;207278;-71
2023/06/22 09:27:29;;;;;;;10.05;5.13;;;31.90;90.80;;;;;;4967878;28;20059;-71
2023/06/22 09:29:55;;;;;;;12.32;5.40;;;32.40;90.80;;;;;;4905117;28;159423;-71
2023/06/22 09:32:21;;;;;;;9.65;5.18;;;32.80;90.30;;;;;;4967196;28;20049;-71
2023/06/22 09:34:47;;;;;;;9.40;4.43;;;33.20;90.20;;;;;;4924151;28;214646;-70
2023/06/22 09:37:13;;;;;;;9.85;5.03;;;33.00;90.00;;;;;;4969899;28;20046;-70
2023/06/22 09:39:39;;;;;;;9.65;5.10;;;32.70;89.80;;;;;;4939697;28;209538;-71
2023/06/22 09:42:06;;;;;;;10.60;4.70;;;32.60;88.60;;;;;;4987194;28;20142;-71
2023/06/22 09:44:32;;;;;;;11.68;4.45;;;32.60;89.60;;;;;;4943210;28;210579;-70
2023/06/22 09:46:58;;;;;;;10.15;4.57;;;32.60;89.50;;;;;;4993751;28;20243;-71
2023/06/22 09:49:24;;;;;;;13.38;5.50;;;33.00;89.70;;;;;;4938880;28;206755;-70
2023/06/22 09:51:52;;;;;;;10.93;5.20;;;33.10;88.70;;;;;;4993694;28;20050;-71
2023/06/22 09:54:18;;;;;;;9.65;4.70;;;33.40;88.30;;;;;;4930040;28;209091;-70
2023/06/22 09:56:44;;;;;;;10.63;5.07;;;33.30;87.50;;;;;;4989248;28;20762;-70
2023/06/22 09:59:10;;;;;;;9.45;4.78;;;33.10;87.60;;;;;;4928646;28;210277;-71
2023/06/22 10:01:36;;;;;;;13.18;5.97;;;33.50;88.10;;;;;;4996556;28;20046;-71
2023/06/22 10:04:02;;;;;;;10.73;5.25;;;33.90;86.50;;;;;;4938438;28;206992;-71
2023/06/22 10:06:29;;;;;;;10.75;4.63;;;34.10;86.00;;;;;;4983430;28;20067;-71
2023/06/22 10:08:55;;;;;;;10.00;4.80;;;34.20;85.90;;;;;;4942520;28;207071;-71
2023/06/22 10:11:26;;;;;;;10.43;5.05;;;34.00;85.80;;;;;;4977772;28;20054;-71
2023/06/22 10:13:53;;;;;;;10.68;5.20;;;34.00;85.40;;;;;;4927008;28;212611;-71
2023/06/22 10:16:19;;;;;;;9.82;4.55;;;34.00;85.70;;;;;;4980720;28;20700;-70
2023/06/22 10:18:45;;;;;;;9.68;4.13;;;34.10;85.50;;;;;;4933046;28;210130;-70
2023/06/22 10:21:11;;;;;;;11.05;4.80;;;33.60;85.90;;;;;;4982717;28;20065;-70
2023/06/22 10:23:37;;;;;;;10.18;4.70;;;33.60;85.40;;;;;;4918379;28;207501;-69
2023/06/22 10:26:03;;;;;;;13.10;5.53;;;33.60;85.90;;;;;;5001735;28;20056;-70
2023/06/22 10:28:29;;;;;;;9.43;5.43;;;33.30;84.80;;;;;;4936082;28;207956;-70
2023/06/22 10:30:55;;;;;;;10.43;5.28;;;33.50;85.30;;;;;;5005749;28;20475;-70
2023/06/22 10:33:21;;;;;;;10.98;5.03;;;33.80;84.80;;;;;;4932891;28;219546;-70
2023/06/22 10:35:48;;;;;;;11.90;4.95;;;33.90;83.50;;;;;;4995154;28;20054;-70
2023/06/22 10:38:14;;;;;;;10.00;4.70;;;34.00;83.70;;;;;;4975507;28;207063;-70
2023/06/22 10:40:40;;;;;;;10.63;4.63;;;34.10;83.50;;;;;;4913549;28;205009;-71
2023/06/22 10:43:06;;;;;;;10.88;4.55;;;34.10;82.90;;;;;;4972775;28;20055;-70
2023/06/22 10:45:32;;;;;;;9.90;3.70;;;34.30;83.70;;;;;;4952301;28;213385;-70
2023/06/22 10:47:58;;;;;;;8.93;3.63;;;34.30;83.30;;;;;;4979919;28;20595;-71
2023/06/22 10:50:25;;;;;;;10.13;4.10;;;34.70;82.60;;;;;;4941199;28;219438;-70
2023/06/22 10:52:51;;;;;;;8.95;3.80;;;34.50;82.60;;;;;;4982016;28;20054;-71
2023/06/22 10:55:18;;;;;;;8.63;4.13;;;34.60;83.00;;;;;;4924039;28;210460;-68
2023/06/22 10:57:46;;;;;;;9.95;3.50;;;34.30;81.80;;;;;;4961417;28;20053;-70
2023/06/22 11:00:15;;;;;;;7.85;3.30;;;33.50;83.40;;;;;;4931771;28;221731;-70
2023/06/22 11:02:41;;;;;;;9.05;3.90;;;33.70;82.90;;;;;;4979481;28;20042;-70
2023/06/22 11:05:08;;;;;;;10.40;3.70;;;33.50;82.80;;;;;;4930978;28;215002;-70
2023/06/22 11:07:34;;;;;;;9.05;3.80;;;33.30;82.90;;;;;;4961812;28;20055;-71
2023/06/22 11:10:00;;;;;;;11.85;4.20;;;33.30;82.40;;;;;;4912283;28;185103;-70
2023/06/22 11:12:26;;;;;;;10.52;4.32;;;32.90;82.20;;;;;;4957405;28;20066;-71
2023/06/22 11:14:52;;;;;;;10.05;3.85;;;32.40;82.50;;;;;;4915590;28;205491;-70
2023/06/22 11:17:18;;;;;;;9.32;3.70;;;32.10;83.30;;;;;;4965368;28;20058;-70
2023/06/22 11:19:45;;;;;;;10.63;4.10;;;31.80;83.70;;;;;;4921334;28;213316;-70
2023/06/22 11:22:11;;;;;;;8.43;3.85;;;31.70;83.80;;;;;;4967743;28;20077;-70
2023/06/22 11:24:37;;;;;;;9.98;4.43;;;31.50;84.30;;;;;;4927700;28;212575;-70
2023/06/22 11:27:04;;;;;;;9.50;3.90;;;31.00;84.30;;;;;;4971613;28;20054;-70
2023/06/22 11:29:30;;;;;;;8.70;3.70;;;30.70;84.30;;;;;;4926109;28;208226;-73
2023/06/22 11:31:56;;;;;;;10.00;3.80;;;30.60;84.30;;;;;;4985127;28;20047;-74
2023/06/22 11:34:23;;;;;;;9.40;3.70;;;30.40;83.60;;;;;;4924480;28;206765;-74
2023/06/22 11:36:49;;;;;;;11.13;4.00;;;30.40;83.60;;;;;;4987708;28;20054;-75
2023/06/22 11:39:15;;;;;;;8.68;3.67;;;30.20;84.50;;;;;;4938307;28;210110;-73
2023/06/22 11:41:42;;;;;;;8.80;3.17;;;30.30;84.30;;;;;;4991419;28;20046;-73
2023/06/22 11:44:08;;;;;;;11.73;3.63;;;30.20;85.50;;;;;;4938022;28;215795;-73
2023/06/22 11:46:34;;;;;;;8.27;3.90;;;30.50;85.50;;;;;;4980988;28;20063;-73
2023/06/22 11:49:01;;;;;;;11.27;3.55;;;30.70;85.20;;;;;;4924655;28;215875;-73
2023/06/22 11:51:27;;;;;;;7.88;3.70;;;31.00;85.90;;;;;;5001708;28;20062;-73
2023/06/22 11:53:54;;;;;;;10.88;4.00;;;31.10;86.00;;;;;;4912672;28;207177;-73
2023/06/22 11:56:20;;;;;;;9.80;4.07;;;31.00;85.30;;;;;;4957262;28;20050;-72
2023/06/22 11:58:46;;;;;;;10.10;4.03;;;30.80;85.70;;;;;;4936676;28;207492;-72
2023/06/22 12:01:15;;;;;;;12.02;4.10;;;30.70;84.40;;;;;;5005855;28;20042;-72
2023/06/22 12:03:43;;;;;;;10.75;4.20;;;30.40;83.90;;;;;;4934429;28;212031;-73
2023/06/22 12:06:09;;;;;;;10.32;3.63;;;30.50;85.10;;;;;;4995981;28;20046;-71
2023/06/22 12:08:35;;;;;;;11.00;4.28;;;30.60;85.90;;;;;;4938950;28;210154;-73
2023/06/22 12:11:02;;;;;;;9.27;4.30;;;30.70;84.90;;;;;;4999872;28;20058;-73
2023/06/22 12:13:28;;;;;;;10.05;4.35;;;30.50;85.20;;;;;;4930796;28;211071;-72
2023/06/22 12:15:54;;;;;;;9.80;4.05;;;30.20;85.00;;;;;;4985918;28;20058;-74
2023/06/22 12:18:21;;;;;;;8.63;3.90;;;30.20;85.00;;;;;;4941338;28;214203;-72
2023/06/22 12:20:47;;;;;;;8.27;3.65;;;30.20;85.10;;;;;;4975662;28;207445;-73
2023/06/22 12:23:14;;;;;;;8.70;4.05;;;30.20;85.30;;;;;;4983459;28;20050;-75
2023/06/22 12:25:41;;;;;;;12.10;4.03;;;30.30;85.20;;;;;;4956703;28;114737;-72
2023/06/22 12:28:07;;;;;;;10.90;4.28;;;30.40;84.80;;;;;;4989048;28;20049;-72